Time;durP1;ratioP1;P1;durP2;ratioP2;P2;SDS_P1;SDS_P2;PMS_P1;PMS_P2;Temp;Humidity;BMP_temperature;BMP_pressure;BME280_temperature;BME280_humidity;BME280_pressure;Samples;Min_cycle;Max_cycle;Signal;HPM_P1;HPM_P2
2023/07/22 00:01:28;;;;;;;10.30;9.30;;;;;;;-128.00;-1.00;-1.00;105569;1253;1003688;-70
2023/07/22 00:03:55;;;;;;;11.00;9.90;;;;;;;-128.00;-1.00;-1.00;105793;1253;1003909;-70
2023/07/22 00:06:21;;;;;;;10.60;9.60;;;;;;;-128.00;-1.00;-1.00;105819;1253;1004338;-70
2023/07/22 00:08:49;;;;;;;12.00;9.90;;;;;;;-128.00;-1.00;-1.00;105827;1252;1003674;-70
2023/07/22 00:11:16;;;;;;;11.00;10.10;;;;;;;-128.00;-1.00;-1.00;105491;1253;1005062;-70
2023/07/22 00:13:43;;;;;;;11.40;10.20;;;;;;;-128.00;-1.00;-1.00;105776;1254;1005015;-70
2023/07/22 00:16:10;;;;;;;10.80;9.80;;;;;;;-128.00;-1.00;-1.00;105763;1253;1004482;-70
2023/07/22 00:18:37;;;;;;;10.60;9.70;;;;;;;-128.00;-1.00;-1.00;105772;1253;1003503;-70
2023/07/22 00:21:04;;;;;;;11.70;10.70;;;;;;;-128.00;-1.00;-1.00;105805;1254;1005259;-70
2023/07/22 00:23:30;;;;;;;11.60;10.50;;;;;;;-128.00;-1.00;-1.00;105782;1254;1004505;-70
2023/07/22 00:25:57;;;;;;;10.90;10.00;;;;;;;-128.00;-1.00;-1.00;105775;1254;1003402;-70
2023/07/22 00:28:24;;;;;;;12.90;11.80;;;;;;;-128.00;-1.00;-1.00;105818;1253;1004579;-70
2023/07/22 00:30:53;;;;;;;11.20;10.20;;;;;;;-128.00;-1.00;-1.00;105817;1253;1004343;-70
2023/07/22 00:33:20;;;;;;;12.00;11.00;;;;;;;-128.00;-1.00;-1.00;105767;1254;1060392;-69
2023/07/22 00:35:52;;;;;;;12.80;11.70;;;;;;;-128.00;-1.00;-1.00;105738;1253;1004847;-70
2023/07/22 00:38:19;;;;;;;13.70;12.60;;;;;;;-128.00;-1.00;-1.00;105874;1252;1059415;-70
2023/07/22 00:40:46;;;;;;;13.50;12.50;;;;;;;-128.00;-1.00;-1.00;105755;1252;1004508;-70
2023/07/22 00:43:12;;;;;;;12.30;11.20;;;;;;;-128.00;-1.00;-1.00;105799;1253;1004575;-70
2023/07/22 00:45:39;;;;;;;12.90;11.80;;;;;;;-128.00;-1.00;-1.00;105753;1253;1004898;-70
2023/07/22 00:48:08;;;;;;;13.20;12.10;;;;;;;-128.00;-1.00;-1.00;105782;1254;1003488;-70
2023/07/22 00:50:35;;;;;;;13.00;11.80;;;;;;;-128.00;-1.00;-1.00;105809;1254;1058911;-70
2023/07/22 00:53:01;;;;;;;12.90;11.70;;;;;;;-128.00;-1.00;-1.00;105792;1253;1004301;-69
2023/07/22 00:55:28;;;;;;;13.60;12.40;;;;;;;-128.00;-1.00;-1.00;105799;1253;1004409;-70
2023/07/22 00:57:55;;;;;;;14.50;13.10;;;;;;;-128.00;-1.00;-1.00;105819;1253;1004560;-69
2023/07/22 01:00:22;;;;;;;13.10;11.90;;;;;;;-128.00;-1.00;-1.00;105797;1253;1004466;-69
2023/07/22 01:02:49;;;;;;;13.40;12.30;;;;;;;-128.00;-1.00;-1.00;105787;1254;1004063;-70
2023/07/22 01:05:16;;;;;;;13.80;12.40;;;;;;;-128.00;-1.00;-1.00;105755;1254;1004978;-69
2023/07/22 01:07:42;;;;;;;12.70;11.60;;;;;;;-128.00;-1.00;-1.00;105804;1253;1003679;-70
2023/07/22 01:10:09;;;;;;;11.70;10.70;;;;;;;-128.00;-1.00;-1.00;105786;1253;1005025;-70
2023/07/22 01:12:36;;;;;;;13.60;12.40;;;;;;;-128.00;-1.00;-1.00;105755;1256;1005210;-70
2023/07/22 01:15:07;;;;;;;11.90;10.90;;;;;;;-128.00;-1.00;-1.00;105437;1254;1003831;-70
2023/07/22 01:17:36;;;;;;;14.90;12.50;;;;;;;-128.00;-1.00;-1.00;105771;1253;1045985;-69
2023/07/22 01:20:03;;;;;;;12.50;11.40;;;;;;;-128.00;-1.00;-1.00;105543;1252;1046181;-70
2023/07/22 01:22:32;;;;;;;12.80;11.70;;;;;;;-128.00;-1.00;-1.00;105680;1254;1004367;-69
2023/07/22 01:24:59;;;;;;;12.40;10.80;;;;;;;-128.00;-1.00;-1.00;105809;1253;1056237;-70
2023/07/22 01:27:26;;;;;;;10.00;9.20;;;;;;;-128.00;-1.00;-1.00;105762;1254;1003725;-69
2023/07/22 01:29:52;;;;;;;9.90;9.10;;;;;;;-128.00;-1.00;-1.00;105785;1253;1004821;-69
2023/07/22 01:32:22;;;;;;;11.00;10.00;;;;;;;-128.00;-1.00;-1.00;105817;1254;1004583;-71
2023/07/22 01:34:49;;;;;;;13.20;12.00;;;;;;;-128.00;-1.00;-1.00;105544;1259;1061753;-71
2023/07/22 01:37:15;;;;;;;13.60;12.50;;;;;;;-128.00;-1.00;-1.00;105798;1254;1004738;-71
2023/07/22 01:39:43;;;;;;;13.30;12.00;;;;;;;-128.00;-1.00;-1.00;105785;1253;1004006;-71
2023/07/22 01:42:10;;;;;;;14.90;13.60;;;;;;;-128.00;-1.00;-1.00;105736;1253;1003457;-70
2023/07/22 01:44:36;;;;;;;14.60;13.30;;;;;;;-128.00;-1.00;-1.00;105438;1254;1003718;-71
2023/07/22 01:47:03;;;;;;;15.70;14.10;;;;;;;-128.00;-1.00;-1.00;105817;1253;1004699;-71
2023/07/22 01:49:30;;;;;;;16.40;14.90;;;;;;;-128.00;-1.00;-1.00;105488;1254;1004351;-71
2023/07/22 01:51:56;;;;;;;15.60;14.10;;;;;;;-128.00;-1.00;-1.00;105743;1254;1003992;-70
2023/07/22 01:54:23;;;;;;;16.20;14.60;;;;;;;-128.00;-1.00;-1.00;105736;1254;1004011;-71
2023/07/22 01:56:50;;;;;;;17.80;16.10;;;;;;;-128.00;-1.00;-1.00;105825;1254;1004340;-71
2023/07/22 01:59:17;;;;;;;17.80;16.30;;;;;;;-128.00;-1.00;-1.00;105772;1254;1004973;-71
2023/07/22 02:01:44;;;;;;;20.80;18.60;;;;;;;-128.00;-1.00;-1.00;105833;1252;1005006;-70
2023/07/22 02:04:10;;;;;;;19.20;17.30;;;;;;;-128.00;-1.00;-1.00;105790;1253;1005091;-70
2023/07/22 02:06:37;;;;;;;20.10;18.00;;;;;;;-128.00;-1.00;-1.00;105606;1254;1004622;-70
2023/07/22 02:09:08;;;;;;;20.20;18.30;;;;;;;-128.00;-1.00;-1.00;105837;1254;1004197;-69
2023/07/22 02:11:36;;;;;;;21.40;19.40;;;;;;;-128.00;-1.00;-1.00;105824;1253;1061421;-69
2023/07/22 02:14:06;;;;;;;23.20;21.10;;;;;;;-128.00;-1.00;-1.00;105675;1253;1003880;-70
2023/07/22 02:16:39;;;;;;;21.20;19.20;;;;;;;-128.00;-1.00;-1.00;105662;1254;1059663;-70
2023/07/22 02:19:05;;;;;;;18.40;16.70;;;;;;;-128.00;-1.00;-1.00;105771;1254;1046916;-70
2023/07/22 02:21:32;;;;;;;17.80;16.20;;;;;;;-128.00;-1.00;-1.00;105796;1253;1004508;-70
2023/07/22 02:23:59;;;;;;;22.70;20.60;;;;;;;-128.00;-1.00;-1.00;105815;1252;1004058;-70
2023/07/22 02:26:25;;;;;;;27.60;24.60;;;;;;;-128.00;-1.00;-1.00;105851;1254;1004315;-70
2023/07/22 02:28:52;;;;;;;23.00;20.80;;;;;;;-128.00;-1.00;-1.00;105781;1254;1004123;-70
2023/07/22 02:31:18;;;;;;;15.80;14.30;;;;;;;-128.00;-1.00;-1.00;105793;1252;1003608;-70
2023/07/22 02:33:46;;;;;;;10.30;9.40;;;;;;;-128.00;-1.00;-1.00;105797;1254;1004121;-70
2023/07/22 02:36:13;;;;;;;10.00;9.00;;;;;;;-128.00;-1.00;-1.00;105766;1254;1003737;-70
2023/07/22 02:38:39;;;;;;;8.90;8.10;;;;;;;-128.00;-1.00;-1.00;105761;1253;1003912;-70
2023/07/22 02:41:07;;;;;;;9.50;8.50;;;;;;;-128.00;-1.00;-1.00;105789;1253;1004311;-70
2023/07/22 02:43:35;;;;;;;9.30;8.50;;;;;;;-128.00;-1.00;-1.00;105836;1253;1004450;-70
2023/07/22 02:46:03;;;;;;;10.70;8.90;;;;;;;-128.00;-1.00;-1.00;105848;1253;1004342;-70
2023/07/22 02:48:31;;;;;;;9.10;8.20;;;;;;;-128.00;-1.00;-1.00;105819;1253;1062259;-70
2023/07/22 02:51:08;;;;;;;8.70;8.00;;;;;;;-128.00;-1.00;-1.00;105820;1253;1004303;-70
2023/07/22 02:53:38;;;;;;;8.60;7.80;;;;;;;-128.00;-1.00;-1.00;105766;1253;1058213;-69
2023/07/22 02:56:06;;;;;;;;;;;;;;;-128.00;-1.00;-1.00;105781;1254;1047725;-70
2023/07/22 02:58:34;;;;;;;8.30;7.30;;;;;;;-128.00;-1.00;-1.00;105808;1253;1004005;-70
2023/07/22 03:01:00;;;;;;;8.30;7.30;;;;;;;-128.00;-1.00;-1.00;105848;1253;1003964;-70
2023/07/22 03:03:27;;;;;;;8.60;7.30;;;;;;;-128.00;-1.00;-1.00;105838;1254;1003935;-70
2023/07/22 03:05:53;;;;;;;7.80;7.00;;;;;;;-128.00;-1.00;-1.00;105776;1253;1004227;-70
2023/07/22 03:08:20;;;;;;;8.00;7.00;;;;;;;-128.00;-1.00;-1.00;105766;1253;1004561;-70
2023/07/22 03:10:48;;;;;;;7.70;6.90;;;;;;;-128.00;-1.00;-1.00;105824;1254;1004724;-71
2023/07/22 03:13:16;;;;;;;9.70;7.60;;;;;;;-128.00;-1.00;-1.00;105822;1253;1004394;-70
2023/07/22 03:15:43;;;;;;;10.50;7.00;;;;;;;-128.00;-1.00;-1.00;105816;1253;1004550;-70
2023/07/22 03:18:11;;;;;;;8.20;6.50;;;;;;;-128.00;-1.00;-1.00;105777;1254;1004962;-70
2023/07/22 03:20:38;;;;;;;7.40;6.70;;;;;;;-128.00;-1.00;-1.00;105821;1253;1004874;-70
2023/07/22 03:23:06;;;;;;;9.90;7.10;;;;;;;-128.00;-1.00;-1.00;105784;1252;1004883;-70
2023/07/22 03:25:33;;;;;;;7.40;6.70;;;;;;;-128.00;-1.00;-1.00;105798;1253;1004029;-70
2023/07/22 03:28:03;;;;;;;9.40;7.20;;;;;;;-128.00;-1.00;-1.00;105776;1254;1004191;-70
2023/07/22 03:30:30;;;;;;;8.30;6.50;;;;;;;-128.00;-1.00;-1.00;105788;1252;1060506;-70
2023/07/22 03:32:57;;;;;;;8.10;7.30;;;;;;;-128.00;-1.00;-1.00;105799;1253;1003458;-71
2023/07/22 03:35:24;;;;;;;9.80;7.10;;;;;;;-128.00;-1.00;-1.00;105634;1253;1004078;-70
2023/07/22 03:37:50;;;;;;;10.30;8.20;;;;;;;-128.00;-1.00;-1.00;105766;1252;1003426;-71
2023/07/22 03:40:20;;;;;;;12.70;9.40;;;;;;;-128.00;-1.00;-1.00;105778;1252;1004168;-71
2023/07/22 03:42:48;;;;;;;11.30;9.30;;;;;;;-128.00;-1.00;-1.00;105750;1253;1059007;-70
2023/07/22 03:45:16;;;;;;;11.50;10.30;;;;;;;-128.00;-1.00;-1.00;105606;1254;1046141;-70
2023/07/22 03:47:45;;;;;;;13.00;10.70;;;;;;;-128.00;-1.00;-1.00;105703;1253;1005778;-71
2023/07/22 03:50:12;;;;;;;12.80;10.60;;;;;;;-128.00;-1.00;-1.00;105776;1254;1063418;-70
2023/07/22 03:52:39;;;;;;;12.20;10.60;;;;;;;-128.00;-1.00;-1.00;105807;1253;1003418;-71
2023/07/22 03:55:06;;;;;;;14.60;12.80;;;;;;;-128.00;-1.00;-1.00;105811;1253;1004412;-70
2023/07/22 03:57:33;;;;;;;16.20;12.70;;;;;;;-128.00;-1.00;-1.00;105262;1254;1004406;-70
2023/07/22 04:00:00;;;;;;;20.20;17.30;;;;;;;-128.00;-1.00;-1.00;105797;1254;1005197;-71
2023/07/22 04:02:27;;;;;;;24.70;22.10;;;;;;;-128.00;-1.00;-1.00;105805;1253;1004862;-70
2023/07/22 04:04:54;;;;;;;25.90;20.40;;;;;;;-128.00;-1.00;-1.00;105838;1253;1004545;-70
2023/07/22 04:07:23;;;;;;;25.90;22.40;;;;;;;-128.00;-1.00;-1.00;105736;1253;1059346;-70
2023/07/22 04:09:49;;;;;;;22.40;20.10;;;;;;;-128.00;-1.00;-1.00;105799;1253;1004910;-71
2023/07/22 04:12:16;;;;;;;23.30;20.10;;;;;;;-128.00;-1.00;-1.00;105548;1253;1005112;-69
2023/07/22 04:14:43;;;;;;;19.20;17.10;;;;;;;-128.00;-1.00;-1.00;105763;1253;1004849;-69
2023/07/22 04:17:10;;;;;;;18.70;16.60;;;;;;;-128.00;-1.00;-1.00;105797;1253;1004808;-69
2023/07/22 04:19:36;;;;;;;19.40;13.90;;;;;;;-128.00;-1.00;-1.00;105759;1253;1004703;-69
2023/07/22 04:22:04;;;;;;;17.20;15.50;;;;;;;-128.00;-1.00;-1.00;105762;1253;1004601;-69
2023/07/22 04:24:31;;;;;;;17.20;15.00;;;;;;;-128.00;-1.00;-1.00;105800;1253;1004401;-70
2023/07/22 04:26:58;;;;;;;16.80;15.10;;;;;;;-128.00;-1.00;-1.00;105458;1254;1004007;-71
2023/07/22 04:29:25;;;;;;;15.70;14.10;;;;;;;-128.00;-1.00;-1.00;105772;1253;1004567;-71
2023/07/22 04:31:51;;;;;;;15.30;13.70;;;;;;;-128.00;-1.00;-1.00;105725;1253;1003996;-70
2023/07/22 04:34:18;;;;;;;14.40;12.80;;;;;;;-128.00;-1.00;-1.00;105571;1253;1004862;-70
2023/07/22 04:36:44;;;;;;;14.80;13.20;;;;;;;-128.00;-1.00;-1.00;105806;1253;1004124;-70
2023/07/22 04:39:11;;;;;;;16.70;13.00;;;;;;;-128.00;-1.00;-1.00;105786;1253;1005015;-71
2023/07/22 04:41:38;;;;;;;18.70;15.30;;;;;;;-128.00;-1.00;-1.00;105801;1253;1004554;-70
2023/07/22 04:44:05;;;;;;;19.80;15.40;;;;;;;-128.00;-1.00;-1.00;105772;1253;1004402;-70
2023/07/22 04:46:31;;;;;;;17.50;14.70;;;;;;;-128.00;-1.00;-1.00;105815;1253;1004736;-70
2023/07/22 04:48:58;;;;;;;16.10;12.90;;;;;;;-128.00;-1.00;-1.00;105808;1253;1003231;-70
2023/07/22 04:51:25;;;;;;;17.60;13.70;;;;;;;-128.00;-1.00;-1.00;105590;1252;1003642;-70
2023/07/22 04:53:51;;;;;;;20.80;16.90;;;;;;;-128.00;-1.00;-1.00;105817;1253;1004411;-71
2023/07/22 04:56:18;;;;;;;19.10;17.10;;;;;;;-128.00;-1.00;-1.00;105785;1253;1003859;-70
2023/07/22 04:58:44;;;;;;;19.10;16.90;;;;;;;-128.00;-1.00;-1.00;105795;1253;1004056;-71
2023/07/22 05:01:11;;;;;;;21.00;19.00;;;;;;;-128.00;-1.00;-1.00;105741;1253;1003726;-70
2023/07/22 05:03:38;;;;;;;25.00;22.50;;;;;;;-128.00;-1.00;-1.00;105740;1253;1004902;-70
2023/07/22 05:06:05;;;;;;;22.60;20.40;;;;;;;-128.00;-1.00;-1.00;105799;1253;1004681;-70
2023/07/22 05:08:31;;;;;;;21.80;19.60;;;;;;;-128.00;-1.00;-1.00;105814;1253;1004205;-70
2023/07/22 05:10:58;;;;;;;21.00;16.60;;;;;;;-128.00;-1.00;-1.00;105582;1253;1005374;-70
2023/07/22 05:13:25;;;;;;;14.40;13.00;;;;;;;-128.00;-1.00;-1.00;105830;1253;1005128;-70
2023/07/22 05:15:51;;;;;;;12.60;11.50;;;;;;;-128.00;-1.00;-1.00;105787;1252;1003490;-70
2023/07/22 05:18:18;;;;;;;14.20;11.50;;;;;;;-128.00;-1.00;-1.00;105823;1253;1004442;-70
2023/07/22 05:20:44;;;;;;;11.00;9.60;;;;;;;-128.00;-1.00;-1.00;105816;1253;1004440;-70
2023/07/22 05:23:11;;;;;;;11.90;8.60;;;;;;;-128.00;-1.00;-1.00;105795;1253;1003742;-70
2023/07/22 05:25:38;;;;;;;8.60;6.80;;;;;;;-128.00;-1.00;-1.00;105817;1253;1003536;-70
2023/07/22 05:28:04;;;;;;;11.60;6.70;;;;;;;-128.00;-1.00;-1.00;105831;1253;1005064;-71
2023/07/22 05:30:31;;;;;;;7.00;5.80;;;;;;;-128.00;-1.00;-1.00;105814;1253;1004429;-70
2023/07/22 05:32:58;;;;;;;6.60;5.30;;;;;;;-128.00;-1.00;-1.00;105763;1252;1004464;-70
2023/07/22 05:35:24;;;;;;;7.00;4.90;;;;;;;-128.00;-1.00;-1.00;105770;1253;1003899;-70
2023/07/22 05:37:51;;;;;;;9.00;4.90;;;;;;;-128.00;-1.00;-1.00;105755;1252;1003795;-71
2023/07/22 05:40:18;;;;;;;7.80;5.10;;;;;;;-128.00;-1.00;-1.00;105787;1253;1004234;-71
2023/07/22 05:42:44;;;;;;;8.20;4.50;;;;;;;-128.00;-1.00;-1.00;105866;1252;1004081;-71
2023/07/22 05:45:15;;;;;;;6.20;5.10;;;;;;;-128.00;-1.00;-1.00;105505;1253;1003620;-71
2023/07/22 05:47:41;;;;;;;5.40;4.80;;;;;;;-128.00;-1.00;-1.00;105779;1253;1045737;-71
2023/07/22 05:50:08;;;;;;;5.00;4.60;;;;;;;-128.00;-1.00;-1.00;105838;1252;1004589;-72
2023/07/22 05:52:35;;;;;;;4.70;4.00;;;;;;;-128.00;-1.00;-1.00;105780;1252;1003978;-71
2023/07/22 05:55:01;;;;;;;7.50;5.10;;;;;;;-128.00;-1.00;-1.00;105811;1253;1003914;-71
2023/07/22 05:57:28;;;;;;;5.90;5.30;;;;;;;-128.00;-1.00;-1.00;105846;1253;1004483;-72
2023/07/22 05:59:54;;;;;;;6.50;4.70;;;;;;;-128.00;-1.00;-1.00;105775;1252;1004181;-70
2023/07/22 06:02:21;;;;;;;8.90;4.90;;;;;;;-128.00;-1.00;-1.00;105803;1253;1004758;-71
2023/07/22 06:04:48;;;;;;;9.80;5.20;;;;;;;-128.00;-1.00;-1.00;105754;1253;1003405;-72
2023/07/22 06:07:14;;;;;;;7.60;4.70;;;;;;;-128.00;-1.00;-1.00;105814;1253;1004981;-71
2023/07/22 06:09:41;;;;;;;4.50;4.10;;;;;;;-128.00;-1.00;-1.00;105607;1252;1003988;-71
2023/07/22 06:12:07;;;;;;;5.30;4.30;;;;;;;-128.00;-1.00;-1.00;105772;1253;1004495;-71
2023/07/22 06:14:34;;;;;;;6.20;4.50;;;;;;;-128.00;-1.00;-1.00;105818;1253;1003312;-71
2023/07/22 06:17:01;;;;;;;7.40;4.60;;;;;;;-128.00;-1.00;-1.00;105816;1253;1003782;-71
2023/07/22 06:19:27;;;;;;;5.30;4.10;;;;;;;-128.00;-1.00;-1.00;105801;1252;1004357;-72
2023/07/22 06:21:54;;;;;;;7.70;4.20;;;;;;;-128.00;-1.00;-1.00;105791;1253;1004177;-71
2023/07/22 06:24:20;;;;;;;4.70;4.20;;;;;;;-128.00;-1.00;-1.00;105820;1254;1003915;-71
2023/07/22 06:26:47;;;;;;;6.80;4.10;;;;;;;-128.00;-1.00;-1.00;105785;1253;1004721;-71
2023/07/22 06:29:14;;;;;;;5.60;3.80;;;;;;;-128.00;-1.00;-1.00;105610;1252;1003989;-71
2023/07/22 06:31:40;;;;;;;4.10;3.30;;;;;;;-128.00;-1.00;-1.00;105793;1253;1004409;-71
2023/07/22 06:34:07;;;;;;;5.40;4.00;;;;;;;-128.00;-1.00;-1.00;105750;1253;1003171;-71
2023/07/22 06:36:33;;;;;;;5.10;4.60;;;;;;;-128.00;-1.00;-1.00;105803;1252;1004067;-71
2023/07/22 06:39:00;;;;;;;4.30;3.90;;;;;;;-128.00;-1.00;-1.00;105789;1253;1004956;-71
2023/07/22 06:41:27;;;;;;;4.00;3.60;;;;;;;-128.00;-1.00;-1.00;105779;1252;1004521;-71
2023/07/22 06:43:53;;;;;;;6.30;3.70;;;;;;;-128.00;-1.00;-1.00;105816;1253;1004341;-71
2023/07/22 06:46:20;;;;;;;5.50;3.80;;;;;;;-128.00;-1.00;-1.00;105819;1253;1004364;-71
2023/07/22 06:48:47;;;;;;;7.30;4.30;;;;;;;-128.00;-1.00;-1.00;105838;1253;1004477;-71
2023/07/22 06:51:14;;;;;;;4.10;3.70;;;;;;;-128.00;-1.00;-1.00;105792;1252;1003887;-70
2023/07/22 06:53:40;;;;;;;5.30;3.80;;;;;;;-128.00;-1.00;-1.00;105776;1252;1005647;-71
2023/07/22 06:56:07;;;;;;;8.00;4.10;;;;;;;-128.00;-1.00;-1.00;105784;1253;1004726;-71
2023/07/22 06:58:33;;;;;;;5.20;4.00;;;;;;;-128.00;-1.00;-1.00;105735;1253;1004411;-71
2023/07/22 07:01:00;;;;;;;5.70;4.10;;;;;;;-128.00;-1.00;-1.00;105789;1253;1004472;-71
2023/07/22 07:03:26;;;;;;;4.80;3.70;;;;;;;-128.00;-1.00;-1.00;105764;1252;1004649;-71
2023/07/22 07:05:54;;;;;;;4.70;4.10;;;;;;;-128.00;-1.00;-1.00;105726;1253;1004238;-71
2023/07/22 07:08:21;;;;;;;4.80;4.30;;;;;;;-128.00;-1.00;-1.00;105388;1252;1003788;-71
2023/07/22 07:10:49;;;;;;;5.50;4.30;;;;;;;-128.00;-1.00;-1.00;105736;1253;1003641;-72
2023/07/22 07:13:15;;;;;;;6.60;5.10;;;;;;;-128.00;-1.00;-1.00;105766;1253;1003910;-72
2023/07/22 07:15:48;;;;;;;4.70;4.20;;;;;;;-128.00;-1.00;-1.00;105784;1252;1004098;-71
2023/07/22 07:18:14;;;;;;;6.30;4.60;;;;;;;-128.00;-1.00;-1.00;105799;1252;1061234;-71
2023/07/22 07:20:41;;;;;;;6.30;5.10;;;;;;;-128.00;-1.00;-1.00;105795;1253;1004095;-71
2023/07/22 07:23:08;;;;;;;6.70;4.80;;;;;;;-128.00;-1.00;-1.00;105775;1252;1003232;-72
2023/07/22 07:25:34;;;;;;;6.10;4.70;;;;;;;-128.00;-1.00;-1.00;105755;1253;1005128;-71
2023/07/22 07:28:01;;;;;;;5.80;4.90;;;;;;;-128.00;-1.00;-1.00;105810;1252;1003659;-71
2023/07/22 07:30:27;;;;;;;5.80;4.80;;;;;;;-128.00;-1.00;-1.00;105779;1252;1004161;-72
2023/07/22 07:32:54;;;;;;;7.80;4.70;;;;;;;-128.00;-1.00;-1.00;105772;1253;1003821;-71
2023/07/22 07:35:21;;;;;;;5.30;4.40;;;;;;;-128.00;-1.00;-1.00;105786;1252;1004538;-71
2023/07/22 07:37:47;;;;;;;6.00;4.30;;;;;;;-128.00;-1.00;-1.00;105718;1253;1004964;-71
2023/07/22 07:40:14;;;;;;;6.10;4.20;;;;;;;-128.00;-1.00;-1.00;105797;1252;1003738;-71
2023/07/22 07:42:40;;;;;;;7.50;4.90;;;;;;;-128.00;-1.00;-1.00;105753;1253;1004239;-70
2023/07/22 07:45:08;;;;;;;4.30;3.90;;;;;;;-128.00;-1.00;-1.00;105708;1252;1004313;-70
2023/07/22 07:47:34;;;;;;;5.60;4.00;;;;;;;-128.00;-1.00;-1.00;105780;1252;1003971;-71
2023/07/22 07:50:03;;;;;;;4.70;3.50;;;;;;;-128.00;-1.00;-1.00;105812;1253;1004330;-71
2023/07/22 07:52:29;;;;;;;4.30;3.90;;;;;;;-128.00;-1.00;-1.00;105766;1253;1003954;-70
2023/07/22 07:54:56;;;;;;;5.90;3.90;;;;;;;-128.00;-1.00;-1.00;105553;1253;1004812;-71
2023/07/22 07:57:22;;;;;;;4.90;4.00;;;;;;;-128.00;-1.00;-1.00;105765;1253;1004982;-72
2023/07/22 07:59:49;;;;;;;4.50;4.10;;;;;;;-128.00;-1.00;-1.00;105779;1252;1005312;-72
2023/07/22 08:02:15;;;;;;;3.80;3.60;;;;;;;-128.00;-1.00;-1.00;105778;1253;1004021;-71
2023/07/22 08:04:42;;;;;;;4.00;3.60;;;;;;;-128.00;-1.00;-1.00;105793;1253;1004098;-72
2023/07/22 08:07:09;;;;;;;3.40;3.20;;;;;;;-128.00;-1.00;-1.00;105748;1252;1003740;-72
2023/07/22 08:09:36;;;;;;;6.60;4.10;;;;;;;-128.00;-1.00;-1.00;105794;1252;1004620;-72
2023/07/22 08:12:03;;;;;;;3.70;3.30;;;;;;;-128.00;-1.00;-1.00;105780;1252;1004470;-71
2023/07/22 08:14:30;;;;;;;3.70;3.40;;;;;;;-128.00;-1.00;-1.00;105763;1252;1004852;-72
2023/07/22 08:16:56;;;;;;;5.10;4.60;;;;;;;-128.00;-1.00;-1.00;105388;1253;1004161;-72
2023/07/22 08:19:23;;;;;;;5.60;3.50;;;;;;;-128.00;-1.00;-1.00;105782;1253;1004673;-71
2023/07/22 08:21:49;;;;;;;4.40;4.00;;;;;;;-128.00;-1.00;-1.00;105844;1253;1004875;-71
2023/07/22 08:24:16;;;;;;;3.70;3.10;;;;;;;-128.00;-1.00;-1.00;105762;1252;1004037;-71
2023/07/22 08:26:43;;;;;;;4.50;3.20;;;;;;;-128.00;-1.00;-1.00;105790;1253;1004417;-71
2023/07/22 08:29:10;;;;;;;3.80;2.60;;;;;;;-128.00;-1.00;-1.00;105767;1253;1004206;-71
2023/07/22 08:31:37;;;;;;;3.40;3.00;;;;;;;-128.00;-1.00;-1.00;105790;1252;1004542;-71
2023/07/22 08:34:04;;;;;;;3.10;2.80;;;;;;;-128.00;-1.00;-1.00;105774;1252;1003925;-71
2023/07/22 08:36:30;;;;;;;4.50;2.90;;;;;;;-128.00;-1.00;-1.00;105769;1253;1003621;-71
2023/07/22 08:38:57;;;;;;;3.80;3.30;;;;;;;-128.00;-1.00;-1.00;105720;1253;1004343;-71
2023/07/22 08:41:25;;;;;;;4.20;2.50;;;;;;;-128.00;-1.00;-1.00;105796;1252;1004790;-71
2023/07/22 08:43:54;;;;;;;3.40;3.10;;;;;;;-128.00;-1.00;-1.00;105808;1252;1004950;-71
2023/07/22 08:46:25;;;;;;;6.30;2.60;;;;;;;-128.00;-1.00;-1.00;105606;1253;1055112;-71
2023/07/22 08:48:54;;;;;;;2.90;2.60;;;;;;;-128.00;-1.00;-1.00;105631;1253;1059693;-72
2023/07/22 08:51:23;;;;;;;3.90;2.80;;;;;;;-128.00;-1.00;-1.00;105793;1253;1044088;-72
2023/07/22 08:53:50;;;;;;;2.30;2.10;;;;;;;-128.00;-1.00;-1.00;105813;1252;1046792;-72
2023/07/22 08:56:17;;;;;;;3.60;2.20;;;;;;;-128.00;-1.00;-1.00;105780;1253;1004604;-72
2023/07/22 08:58:45;;;;;;;2.60;2.30;;;;;;;-128.00;-1.00;-1.00;105812;1253;1003380;-71
2023/07/22 09:01:12;;;;;;;2.20;2.10;;;;;;;-128.00;-1.00;-1.00;105729;1252;1004984;-71
2023/07/22 09:03:39;;;;;;;2.10;2.00;;;;;;;-128.00;-1.00;-1.00;105733;1253;1004972;-72
2023/07/22 09:06:06;;;;;;;2.90;1.90;;;;;;;-128.00;-1.00;-1.00;105815;1252;1003846;-71
2023/07/22 09:08:33;;;;;;;2.60;2.40;;;;;;;-128.00;-1.00;-1.00;105782;1253;1004614;-72
2023/07/22 09:11:01;;;;;;;2.40;2.10;;;;;;;-128.00;-1.00;-1.00;105794;1252;1004434;-72
2023/07/22 09:13:28;;;;;;;3.60;2.40;;;;;;;-128.00;-1.00;-1.00;105797;1252;1003754;-72
2023/07/22 09:15:58;;;;;;;2.80;2.00;;;;;;;-128.00;-1.00;-1.00;105377;1252;1004259;-72
2023/07/22 09:18:25;;;;;;;;;;;;;;;-128.00;-1.00;-1.00;105809;1252;1047837;-72
2023/07/22 09:20:52;;;;;;;3.00;2.30;;;;;;;-128.00;-1.00;-1.00;105742;1253;1004064;-71
2023/07/22 09:23:35;;;;;;;2.30;2.10;;;;;;;-128.00;-1.00;-1.00;105814;1253;1005088;-71
2023/07/22 09:26:09;;;;;;;1.80;1.40;;;;;;;-128.00;-1.00;-1.00;105755;1253;1059709;-72
2023/07/22 09:28:54;;;;;;;2.10;1.90;;;;;;;-128.00;-1.00;-1.00;105762;1253;1044400;-73
2023/07/22 09:31:23;;;;;;;3.10;1.80;;;;;;;-128.00;-1.00;-1.00;105763;1253;1046997;-72
2023/07/22 09:33:50;;;;;;;2.50;1.90;;;;;;;-128.00;-1.00;-1.00;105652;1252;1004352;-71
2023/07/22 09:36:17;;;;;;;2.80;1.80;;;;;;;-128.00;-1.00;-1.00;105819;1253;1004278;-72
2023/07/22 09:38:43;;;;;;;2.20;2.00;;;;;;;-128.00;-1.00;-1.00;105750;1252;1003564;-72
2023/07/22 09:41:10;;;;;;;3.60;2.30;;;;;;;-128.00;-1.00;-1.00;105726;1252;1005233;-70
2023/07/22 09:43:38;;;;;;;1.80;1.70;;;;;;;-128.00;-1.00;-1.00;105761;1253;1004364;-72
2023/07/22 09:46:11;;;;;;;2.30;2.10;;;;;;;-128.00;-1.00;-1.00;105797;1253;1004123;-72
2023/07/22 09:48:42;;;;;;;2.40;1.80;;;;;;;-128.00;-1.00;-1.00;105754;1253;1056854;-72
2023/07/22 09:51:14;;;;;;;1.70;1.60;;;;;;;-128.00;-1.00;-1.00;105729;1252;1059258;-71
2023/07/22 09:53:45;;;;;;;3.30;2.00;;;;;;;-128.00;-1.00;-1.00;105483;1253;1045661;-72
2023/07/22 09:56:11;;;;;;;1.70;1.60;;;;;;;-128.00;-1.00;-1.00;105797;1253;1046539;-72
2023/07/22 09:58:39;;;;;;;1.90;1.80;;;;;;;-128.00;-1.00;-1.00;105797;1253;1004460;-72
2023/07/22 10:01:07;;;;;;;2.10;2.00;;;;;;;-128.00;-1.00;-1.00;105846;1252;1004684;-71
2023/07/22 10:03:37;;;;;;;2.10;2.00;;;;;;;-128.00;-1.00;-1.00;105827;1252;1004481;-72
2023/07/22 10:06:05;;;;;;;;;;;;;;;-128.00;-1.00;-1.00;105714;1252;1044394;-71
2023/07/22 10:08:35;;;;;;;1.90;1.80;;;;;;;-128.00;-1.00;-1.00;105660;1253;1004136;-71
2023/07/22 10:11:05;;;;;;;2.60;2.40;;;;;;;-128.00;-1.00;-1.00;105758;1253;1061437;-72
2023/07/22 10:13:32;;;;;;;;;;;;;;;-128.00;-1.00;-1.00;105766;1253;1055213;-72
2023/07/22 10:15:59;;;;;;;3.20;2.40;;;;;;;-128.00;-1.00;-1.00;105812;1253;1005044;-72
2023/07/22 10:18:26;;;;;;;3.10;2.40;;;;;;;-128.00;-1.00;-1.00;105767;1253;1004099;-72
2023/07/22 10:20:53;;;;;;;2.90;2.50;;;;;;;-128.00;-1.00;-1.00;105668;1253;1004103;-72
2023/07/22 10:23:22;;;;;;;2.90;2.70;;;;;;;-128.00;-1.00;-1.00;105802;1253;1004687;-71
2023/07/22 10:25:50;;;;;;;4.40;2.90;;;;;;;-128.00;-1.00;-1.00;105793;1253;1055834;-71
2023/07/22 10:28:17;;;;;;;3.70;2.10;;;;;;;-128.00;-1.00;-1.00;105770;1252;1004736;-71
2023/07/22 10:30:43;;;;;;;3.10;2.30;;;;;;;-128.00;-1.00;-1.00;105742;1252;1004685;-71
2023/07/22 10:33:11;;;;;;;2.60;2.40;;;;;;;-128.00;-1.00;-1.00;105798;1252;1004033;-72
2023/07/22 10:35:42;;;;;;;2.60;2.40;;;;;;;-128.00;-1.00;-1.00;105800;1253;1004977;-72
2023/07/22 10:38:15;;;;;;;4.40;2.50;;;;;;;-128.00;-1.00;-1.00;105744;1252;1054645;-71
2023/07/22 10:40:54;;;;;;;2.40;2.20;;;;;;;-128.00;-1.00;-1.00;105809;1252;1059223;-72
2023/07/22 10:43:26;;;;;;;2.80;2.00;;;;;;;-128.00;-1.00;-1.00;105660;1252;1044459;-71
2023/07/22 10:45:55;;;;;;;2.40;2.20;;;;;;;-128.00;-1.00;-1.00;105774;1252;1047501;-71
2023/07/22 10:48:25;;;;;;;2.30;2.10;;;;;;;-128.00;-1.00;-1.00;105767;1253;1061588;-72
2023/07/22 10:50:57;;;;;;;3.10;2.30;;;;;;;-128.00;-1.00;-1.00;105792;1252;1054423;-71
2023/07/22 10:53:23;;;;;;;2.70;2.50;;;;;;;-128.00;-1.00;-1.00;105744;1253;1060052;-71
2023/07/22 10:56:09;;;;;;;2.50;2.20;;;;;;;-128.00;-1.00;-1.00;105748;1252;1003763;-72
2023/07/22 10:58:44;;;;;;;5.00;2.30;;;;;;;-128.00;-1.00;-1.00;105766;1252;1048195;-72
2023/07/22 11:01:27;;;;;;;2.90;2.50;;;;;;;-128.00;-1.00;-1.00;105824;1252;1061994;-72
2023/07/22 11:04:11;;;;;;;2.40;2.10;;;;;;;-128.00;-1.00;-1.00;105830;1253;1055159;-72
2023/07/22 11:06:39;;;;;;;4.50;2.60;;;;;;;-128.00;-1.00;-1.00;105739;1253;1060060;-71
2023/07/22 11:09:06;;;;;;;3.50;2.80;;;;;;;-128.00;-1.00;-1.00;105775;1253;1044608;-70
2023/07/22 11:11:38;;;;;;;3.00;2.20;;;;;;;-128.00;-1.00;-1.00;105805;1252;1005003;-71
2023/07/22 11:14:21;;;;;;;4.00;2.40;;;;;;;-128.00;-1.00;-1.00;105744;1252;1061598;-71